createdAt,value
2023-03-12T00:01:30.711Z,97874.72
2023-03-12T00:04:00.290Z,97879.03
2023-03-12T00:06:29.646Z,97877.31
2023-03-12T00:09:01.905Z,97824.97
2023-03-12T00:11:32.779Z,97890.78
2023-03-12T00:14:01.892Z,97888.88
2023-03-12T00:16:30.949Z,97898.97
2023-03-12T00:18:59.977Z,97900.16
2023-03-12T00:21:29.141Z,97905.69
2023-03-12T00:23:58.391Z,97865.88
2023-03-12T00:26:27.593Z,97880.78
2023-03-12T00:28:58.503Z,97885.59
2023-03-12T00:31:31.932Z,97884.19
2023-03-12T00:34:03.488Z,97881.41
2023-03-12T00:36:33.756Z,97881.81
2023-03-12T00:39:03.437Z,97873.34
2023-03-12T00:41:32.757Z,97876.75
2023-03-12T00:44:03.228Z,97898.41
2023-03-12T00:46:32.450Z,97893.94
2023-03-12T00:49:01.671Z,97852.13
2023-03-12T00:51:30.987Z,97900.81
2023-03-12T00:53:59.982Z,97879.88
2023-03-12T00:56:28.887Z,97868.00
2023-03-12T00:58:58.166Z,97908.53
2023-03-12T01:01:28.901Z,97902.94
2023-03-12T01:03:58.976Z,97906.25
2023-03-12T01:06:28.534Z,97914.41
2023-03-12T01:08:57.523Z,97907.19
2023-03-12T01:11:27.318Z,97911.41
2023-03-12T01:13:56.460Z,97919.06
2023-03-12T01:16:28.429Z,97913.19
2023-03-12T01:19:00.021Z,97897.09
2023-03-12T01:21:29.725Z,97903.44
2023-03-12T01:23:59.076Z,97907.25
2023-03-12T01:26:28.380Z,97915.81
2023-03-12T01:28:57.476Z,97916.94
2023-03-12T01:31:26.579Z,97897.19
2023-03-12T01:33:55.657Z,97945.75
2023-03-12T01:36:27.508Z,97929.63
2023-03-12T01:38:58.404Z,97949.66
2023-03-12T01:41:29.340Z,97930.16
2023-03-12T01:43:58.222Z,97942.75
2023-03-12T01:46:34.807Z,97948.00
2023-03-12T01:49:12.617Z,97930.00
2023-03-12T01:51:46.921Z,97972.81
2023-03-12T01:54:19.396Z,97971.97
2023-03-12T01:56:49.634Z,97984.34
2023-03-12T01:59:24.647Z,97997.06
2023-03-12T02:01:54.168Z,98004.16
2023-03-12T02:04:25.742Z,98010.97
2023-03-12T02:07:02.204Z,97990.50
2023-03-12T02:09:34.000Z,98025.25
2023-03-12T02:12:03.710Z,98012.84
2023-03-12T02:14:33.357Z,98035.94
2023-03-12T02:17:02.590Z,98042.91
2023-03-12T02:19:42.750Z,98054.41
2023-03-12T02:22:14.490Z,98057.81
2023-03-12T02:24:48.767Z,98055.25
2023-03-12T02:27:20.301Z,98077.66
2023-03-12T02:29:50.804Z,98119.25
2023-03-12T02:32:24.653Z,98095.22
2023-03-12T02:34:53.785Z,98135.31
2023-03-12T02:37:22.939Z,98130.00
2023-03-12T02:39:58.988Z,98137.75
2023-03-12T02:42:29.468Z,98127.16
2023-03-12T02:44:59.759Z,98167.78
2023-03-12T02:47:28.805Z,98170.25
2023-03-12T02:49:57.847Z,98147.75
2023-03-12T02:52:27.053Z,98159.47
2023-03-12T02:54:56.102Z,98178.84
2023-03-12T02:57:25.065Z,98187.00
2023-03-12T02:59:55.393Z,98160.00
2023-03-12T03:02:24.494Z,98187.75
2023-03-12T03:04:53.608Z,98192.50
2023-03-12T03:07:22.714Z,98164.31
2023-03-12T03:09:51.849Z,98180.56
2023-03-12T03:12:20.887Z,98175.69
2023-03-12T03:14:50.251Z,98160.03
2023-03-12T03:17:23.462Z,98206.88
2023-03-12T03:19:52.776Z,98223.63
2023-03-12T03:22:23.014Z,98221.13
2023-03-12T03:24:52.297Z,98201.75
2023-03-12T03:27:21.289Z,98225.88
2023-03-12T03:32:18.485Z,98236.34
2023-03-12T03:34:48.804Z,98213.56
2023-03-12T03:37:19.537Z,98206.41
2023-03-12T03:39:48.835Z,98234.16
2023-03-12T03:42:18.022Z,98243.63
2023-03-12T03:44:48.013Z,98245.59
2023-03-12T03:47:17.356Z,98257.63
2023-03-12T03:49:46.550Z,98248.09
2023-03-12T03:52:16.979Z,98275.81
2023-03-12T03:54:46.064Z,98261.03
2023-03-12T03:57:15.367Z,98267.56
2023-03-12T03:59:44.472Z,98253.50
2023-03-12T04:02:13.574Z,98263.75
2023-03-12T04:04:44.296Z,98277.38
2023-03-12T04:07:13.212Z,98282.88
2023-03-12T04:09:44.846Z,98262.22
2023-03-12T04:12:13.949Z,98271.28
2023-03-12T04:14:44.734Z,98293.31
2023-03-12T04:17:14.449Z,98294.22
2023-03-12T04:19:43.536Z,98308.72
2023-03-12T04:22:12.576Z,98281.97
2023-03-12T04:24:43.053Z,98322.97
2023-03-12T04:27:12.225Z,98311.25
2023-03-12T04:29:42.191Z,98342.63
2023-03-12T04:32:11.723Z,98350.28
2023-03-12T04:34:40.903Z,98288.38
2023-03-12T04:37:11.412Z,98361.63
2023-03-12T04:39:40.634Z,98350.38
2023-03-12T04:42:11.757Z,98331.97
2023-03-12T04:44:42.466Z,98349.50
2023-03-12T04:47:11.502Z,98372.50
2023-03-12T04:49:40.608Z,98382.59
2023-03-12T04:52:09.688Z,98381.13
2023-03-12T04:54:39.172Z,98387.13
2023-03-12T04:57:08.357Z,98388.97
2023-03-12T04:59:39.457Z,98411.13
2023-03-12T05:02:08.892Z,98391.91
2023-03-12T05:04:38.044Z,98413.81
2023-03-12T05:07:07.512Z,98415.59
2023-03-12T05:09:36.766Z,98368.56
2023-03-12T05:12:06.548Z,98414.44
2023-03-12T05:14:36.227Z,98435.94
2023-03-12T05:17:07.050Z,98434.44
2023-03-12T05:19:36.960Z,98369.22
2023-03-12T05:22:06.321Z,98442.31
2023-03-12T05:24:37.381Z,98444.13
2023-03-12T05:27:08.500Z,98454.06
2023-03-12T05:29:37.549Z,98465.09
2023-03-12T05:32:08.670Z,98477.44
2023-03-12T05:34:38.376Z,98475.97
2023-03-12T05:37:07.462Z,98482.88
2023-03-12T05:39:38.176Z,98503.81
2023-03-12T05:42:08.663Z,98516.88
2023-03-12T05:44:38.807Z,98511.16
2023-03-12T05:47:10.649Z,98529.09
2023-03-12T05:49:41.754Z,98557.13
2023-03-12T05:52:10.574Z,98550.53
2023-03-12T05:54:39.423Z,98567.81
2023-03-12T05:57:08.535Z,98572.91
2023-03-12T05:59:37.294Z,98587.28
2023-03-12T06:02:08.938Z,98585.94
2023-03-12T06:04:38.488Z,98592.63
2023-03-12T06:07:07.547Z,98593.72
2023-03-12T06:09:38.436Z,98605.66
2023-03-12T06:12:08.122Z,98611.53
2023-03-12T06:14:37.948Z,98608.50
2023-03-12T06:17:08.503Z,98625.53
2023-03-12T06:19:37.208Z,98626.88
2023-03-12T06:22:06.073Z,98629.22
2023-03-12T06:24:34.764Z,98632.06
2023-03-12T06:27:05.927Z,98652.88
2023-03-12T06:29:34.847Z,98654.28
2023-03-12T06:32:04.802Z,98666.38
2023-03-12T06:34:46.086Z,98673.31
2023-03-12T06:37:25.295Z,98670.78
2023-03-12T06:39:54.889Z,98700.44
2023-03-12T06:42:28.763Z,98707.06
2023-03-12T06:44:58.138Z,98699.09
2023-03-12T06:47:29.469Z,98710.56
2023-03-12T06:50:00.560Z,98719.88
2023-03-12T06:52:30.040Z,98720.72
2023-03-12T06:55:01.543Z,98727.47
2023-03-12T06:57:37.134Z,98720.41
2023-03-12T07:00:08.304Z,98748.22
2023-03-12T07:02:40.483Z,98750.97
2023-03-12T07:05:12.031Z,98771.88
2023-03-12T07:07:44.132Z,98771.69
2023-03-12T07:10:19.748Z,98781.38
2023-03-12T07:13:26.110Z,98770.84
2023-03-12T07:15:55.460Z,98795.88
2023-03-12T07:18:27.061Z,98798.00
2023-03-12T07:20:57.993Z,98796.09
2023-03-12T07:23:30.896Z,98802.38
2023-03-12T07:26:00.217Z,98814.16
2023-03-12T07:28:29.937Z,98817.56
2023-03-12T07:31:12.196Z,98823.38
2023-03-12T07:33:47.509Z,98826.84
2023-03-12T07:36:19.908Z,98835.22
2023-03-12T07:38:52.025Z,98843.38
2023-03-12T07:41:26.851Z,98847.31
2023-03-12T07:43:57.045Z,98853.13
2023-03-12T07:46:53.475Z,98852.75
2023-03-12T07:49:26.892Z,98860.25
2023-03-12T07:52:14.580Z,98872.28
2023-03-12T07:54:59.743Z,98891.13
2023-03-12T07:57:32.778Z,98884.88
2023-03-12T08:00:07.790Z,98899.44
2023-03-12T08:02:43.528Z,98890.81
2023-03-12T08:05:12.892Z,98899.34
2023-03-12T08:07:44.072Z,98913.66
2023-03-12T08:10:13.638Z,98913.63
2023-03-12T08:12:43.263Z,98926.06
2023-03-12T08:15:13.295Z,98937.19
2023-03-12T08:17:44.386Z,98947.88
2023-03-12T08:20:14.353Z,98946.00
2023-03-12T08:22:44.404Z,98949.88
2023-03-12T08:25:15.081Z,98952.03
2023-03-12T08:27:44.932Z,98960.69
2023-03-12T08:30:23.755Z,98963.56
2023-03-12T08:32:52.757Z,98955.31
2023-03-12T08:35:26.683Z,98972.56
2023-03-12T08:38:01.145Z,98982.19
2023-03-12T08:40:30.509Z,98985.66
2023-03-12T08:42:59.462Z,98987.31
2023-03-12T08:45:28.571Z,98999.03
2023-03-12T08:48:00.813Z,99002.81
2023-03-12T08:50:32.164Z,98995.44
2023-03-12T08:53:06.399Z,99012.16
2023-03-12T08:55:39.844Z,99022.78
2023-03-12T08:58:08.841Z,99030.88
2023-03-12T09:00:39.501Z,99016.41
2023-03-12T09:03:12.636Z,99019.09
2023-03-12T09:05:42.094Z,99028.81
2023-03-12T09:08:13.356Z,99029.25
2023-03-12T09:10:42.770Z,99041.22
2023-03-12T09:13:11.714Z,99045.69
2023-03-12T09:15:42.550Z,99048.88
2023-03-12T09:18:13.131Z,99062.72
2023-03-12T09:20:44.142Z,99056.41
2023-03-12T09:23:17.560Z,99052.97
2023-03-12T09:25:49.254Z,99067.91
2023-03-12T09:28:20.244Z,99068.75
2023-03-12T09:31:01.602Z,99083.75
2023-03-12T09:33:32.259Z,99084.78
2023-03-12T09:36:02.587Z,99108.28
2023-03-12T09:38:39.271Z,99124.25
2023-03-12T09:41:20.154Z,99119.88
2023-03-12T09:43:56.706Z,99116.09
2023-03-12T09:46:28.020Z,99113.75
2023-03-12T09:48:58.386Z,99127.28
2023-03-12T09:51:30.121Z,99133.88
2023-03-12T09:54:01.824Z,99133.31
2023-03-12T09:56:31.073Z,99127.25
2023-03-12T09:59:00.274Z,99140.28
2023-03-12T10:01:40.115Z,99155.50
2023-03-12T10:04:20.420Z,99160.72
2023-03-12T10:06:53.998Z,99157.16
2023-03-12T10:09:35.862Z,99169.66
2023-03-12T10:12:07.876Z,99166.88
2023-03-12T10:14:44.624Z,99172.91
2023-03-12T10:17:23.366Z,99181.00
2023-03-12T10:19:57.742Z,99191.66
2023-03-12T10:22:34.170Z,99189.88
2023-03-12T10:25:08.376Z,99202.34
2023-03-12T10:27:38.088Z,99205.00
2023-03-12T10:30:15.070Z,99206.34
2023-03-12T10:32:47.222Z,99227.66
2023-03-12T10:35:24.052Z,99210.47
2023-03-12T10:38:03.112Z,99226.44
2023-03-12T10:40:39.337Z,99221.09
2023-03-12T10:43:14.178Z,99220.91
2023-03-12T10:45:55.215Z,99203.50
2023-03-12T10:48:29.567Z,99222.34
2023-03-12T10:51:13.356Z,99223.09
2023-03-12T10:53:52.954Z,99217.50
2023-03-12T10:56:45.618Z,99215.22
2023-03-12T10:59:27.194Z,99219.72
2023-03-12T11:01:56.223Z,99216.38
2023-03-12T11:04:29.486Z,99233.97
2023-03-12T11:07:26.850Z,99246.44
2023-03-12T11:10:06.572Z,99229.59
2023-03-12T11:12:40.115Z,99234.31
2023-03-12T11:15:24.637Z,99239.78
2023-03-12T11:17:53.701Z,99254.41
2023-03-12T11:20:27.305Z,99249.84
2023-03-12T11:22:56.137Z,99245.41
2023-03-12T11:25:26.090Z,99250.44
2023-03-12T11:27:56.315Z,99267.38
2023-03-12T11:30:31.306Z,99257.97
2023-03-12T11:33:02.299Z,99249.38
2023-03-12T11:35:37.791Z,99269.91
2023-03-12T11:38:11.735Z,99249.31
2023-03-12T11:40:53.710Z,99253.63
2023-03-12T11:43:43.899Z,99255.03
2023-03-12T11:46:19.654Z,99262.03
2023-03-12T11:48:56.522Z,99256.91
2023-03-12T11:51:32.428Z,99260.06
2023-03-12T11:54:13.683Z,99272.97
2023-03-12T11:56:46.761Z,99275.66
2023-03-12T11:59:32.701Z,99283.16
2023-03-12T12:02:13.000Z,99281.16
2023-03-12T12:04:57.872Z,99288.56
2023-03-12T12:07:35.927Z,99295.56
2023-03-12T12:10:10.708Z,99298.63
2023-03-12T12:16:32.161Z,99310.91
2023-03-12T12:19:09.904Z,99308.47
2023-03-12T12:21:47.483Z,99309.19
2023-03-12T12:24:23.327Z,99325.66
2023-03-12T12:26:57.218Z,99335.97
2023-03-12T12:29:36.595Z,99335.59
2023-03-12T12:32:07.850Z,99344.72
2023-03-12T12:34:58.956Z,99361.56
2023-03-12T12:37:42.174Z,99352.28
2023-03-12T12:40:17.742Z,99367.22
2023-03-12T12:42:51.036Z,99375.81
2023-03-12T12:45:20.914Z,99378.25
2023-03-12T12:47:52.211Z,99383.75
2023-03-12T12:50:23.810Z,99377.84
2023-03-12T12:52:55.214Z,99384.00
2023-03-12T12:55:29.725Z,99385.50
2023-03-12T12:58:01.915Z,99383.44
2023-03-12T13:00:45.367Z,99378.09
2023-03-12T13:03:17.550Z,99404.13
2023-03-12T13:05:50.408Z,99388.63
2023-03-12T13:08:38.875Z,99392.91
2023-03-12T13:11:18.303Z,99403.91
2023-03-12T13:13:50.757Z,99411.38
2023-03-12T13:16:34.229Z,99412.88
2023-03-12T13:19:06.742Z,99395.41
2023-03-12T13:21:40.132Z,99398.78
2023-03-12T13:24:18.310Z,99405.44
2023-03-12T13:26:52.667Z,99411.16
2023-03-12T13:29:25.632Z,99425.66
2023-03-12T13:31:54.392Z,99418.84
2023-03-12T13:34:53.153Z,99436.50
2023-03-12T13:37:30.229Z,99427.53
2023-03-12T13:40:08.329Z,99442.63
2023-03-12T13:42:39.306Z,99436.97
2023-03-12T13:45:32.694Z,99428.88
2023-03-12T13:48:03.698Z,99419.81
2023-03-12T13:50:34.603Z,99418.69
2023-03-12T13:53:06.778Z,99427.59
2023-03-12T13:55:36.326Z,99433.88
2023-03-12T13:58:09.719Z,99444.44
2023-03-12T14:00:47.915Z,99433.88
2023-03-12T14:03:21.742Z,99435.22
2023-03-12T14:05:53.796Z,99430.50
2023-03-12T14:08:34.330Z,99429.50
2023-03-12T14:11:17.567Z,99441.00
2023-03-12T14:13:56.081Z,99390.00
2023-03-12T14:16:31.500Z,99453.16
2023-03-12T14:19:00.713Z,99437.97
2023-03-12T14:21:34.126Z,99442.22
2023-03-12T14:24:12.094Z,99440.06
2023-03-12T14:26:41.456Z,99438.41
2023-03-12T14:29:12.573Z,99432.22
2023-03-12T14:31:42.311Z,99456.44
2023-03-12T14:34:17.025Z,99447.72
2023-03-12T14:36:52.089Z,99442.19
2023-03-12T14:39:29.037Z,99453.47
2023-03-12T14:42:01.207Z,99478.00
2023-03-12T14:44:30.927Z,99468.53
2023-03-12T14:47:00.797Z,99464.75
2023-03-12T14:49:30.621Z,99467.03
2023-03-12T14:52:01.463Z,99474.59
2023-03-12T14:54:32.207Z,99470.94
2023-03-12T14:57:03.984Z,99486.25
2023-03-12T14:59:33.792Z,99476.28
2023-03-12T15:02:08.651Z,99503.97
2023-03-12T15:04:46.316Z,99518.59
2023-03-12T15:07:19.529Z,99503.31
2023-03-12T15:09:51.589Z,99507.94
2023-03-12T15:12:21.922Z,99500.34
2023-03-12T15:14:52.204Z,99500.94
2023-03-12T15:17:27.189Z,99504.19
2023-03-12T15:19:57.527Z,99499.75
2023-03-12T15:22:28.848Z,99514.81
2023-03-12T15:25:02.941Z,99516.06
2023-03-12T15:27:33.498Z,99525.09
2023-03-12T15:30:02.824Z,99535.44
2023-03-12T15:32:32.431Z,99544.63
2023-03-12T15:35:13.223Z,99538.09
2023-03-12T15:37:43.063Z,99543.19
2023-03-12T15:40:22.638Z,99542.34
2023-03-12T15:42:51.821Z,99549.13
2023-03-12T15:45:21.797Z,99553.28
2023-03-12T15:47:51.584Z,99550.47
2023-03-12T15:50:21.924Z,99550.47
2023-03-12T15:53:01.190Z,99549.28
2023-03-12T15:55:32.337Z,99564.34
2023-03-12T15:58:02.557Z,99564.25
2023-03-12T16:00:31.985Z,99571.09
2023-03-12T16:03:04.279Z,99570.06
2023-03-12T16:05:35.502Z,99579.69
2023-03-12T16:08:11.988Z,99582.75
2023-03-12T16:10:43.165Z,99591.72
2023-03-12T16:13:15.358Z,99597.13
2023-03-12T16:15:47.361Z,99595.13
2023-03-12T16:18:20.347Z,99600.88
2023-03-12T16:20:50.469Z,99611.53
2023-03-12T16:23:20.096Z,99615.66
2023-03-12T16:25:54.525Z,99633.34
2023-03-12T16:28:24.809Z,99635.25
2023-03-12T16:30:54.065Z,99653.19
2023-03-12T16:33:25.803Z,99691.44
2023-03-12T16:35:55.915Z,99683.09
2023-03-12T16:38:25.447Z,99675.44
2023-03-12T16:40:56.161Z,99683.91
2023-03-12T16:43:28.321Z,99680.97
2023-03-12T16:45:58.032Z,99693.53
2023-03-12T16:48:29.009Z,99695.69
2023-03-12T16:51:23.472Z,99696.75
2023-03-12T16:54:11.278Z,99703.66
2023-03-12T16:56:44.581Z,99709.47
2023-03-12T16:59:15.965Z,99715.34
2023-03-12T17:01:45.234Z,99712.88
2023-03-12T17:04:33.315Z,99713.84
2023-03-12T17:07:06.455Z,99721.09
2023-03-12T17:09:39.824Z,99731.44
2023-03-12T17:12:23.221Z,99729.84
2023-03-12T17:14:54.127Z,99743.50
2023-03-12T17:17:23.515Z,99756.72
2023-03-12T17:19:56.068Z,99758.25
2023-03-12T17:22:26.955Z,99764.28
2023-03-12T17:24:56.068Z,99771.88
2023-03-12T17:27:26.859Z,99779.53
2023-03-12T17:29:56.397Z,99773.16
2023-03-12T17:32:28.446Z,99784.09
2023-03-12T17:34:57.804Z,99792.81
2023-03-12T17:37:27.782Z,99791.97
2023-03-12T17:39:57.637Z,99788.81
2023-03-12T17:42:32.245Z,99796.41
2023-03-12T17:45:02.556Z,99814.41
2023-03-12T17:47:32.299Z,99799.50
2023-03-12T17:50:01.590Z,99812.59
2023-03-12T17:52:33.898Z,99815.59
2023-03-12T17:55:03.858Z,99810.59
2023-03-12T17:57:35.655Z,99821.28
2023-03-12T18:00:12.950Z,99830.53
2023-03-12T18:02:42.891Z,99838.63
2023-03-12T18:05:14.740Z,99836.28
2023-03-12T18:07:44.167Z,99843.38
2023-03-12T18:10:18.453Z,99859.81
2023-03-12T18:12:49.082Z,99860.94
2023-03-12T18:15:18.484Z,99854.03
2023-03-12T18:17:52.450Z,99858.22
2023-03-12T18:20:36.248Z,99871.34
2023-03-12T18:23:08.078Z,99875.56
2023-03-12T18:25:38.694Z,99870.56
2023-03-12T18:28:12.178Z,99863.75
2023-03-12T18:30:42.102Z,99870.44
2023-03-12T18:33:12.508Z,99875.88
2023-03-12T18:35:49.791Z,99869.50
2023-03-12T18:38:24.754Z,99886.50
2023-03-12T18:41:05.501Z,99890.00
2023-03-12T18:43:39.161Z,99885.19
2023-03-12T18:46:09.925Z,99897.44
2023-03-12T18:48:44.249Z,99911.38
2023-03-12T18:51:26.657Z,99913.34
2023-03-12T18:53:58.558Z,99926.72
2023-03-12T18:56:33.883Z,99917.22
2023-03-12T18:59:05.021Z,99925.72
2023-03-12T19:01:37.572Z,99928.53
2023-03-12T19:04:12.493Z,99941.91
2023-03-12T19:06:50.800Z,99942.66
2023-03-12T19:09:27.803Z,99952.81
2023-03-12T19:11:58.681Z,99947.84
2023-03-12T19:14:35.064Z,99951.25
2023-03-12T19:17:06.564Z,99962.16
2023-03-12T19:19:42.373Z,99969.09
2023-03-12T19:22:18.022Z,99970.66
2023-03-12T19:24:48.240Z,99978.53
2023-03-12T19:27:19.567Z,99980.53
2023-03-12T19:29:57.428Z,99993.13
2023-03-12T19:32:42.043Z,99996.41
2023-03-12T19:35:17.335Z,100015.38
2023-03-12T19:37:51.453Z,100013.53
2023-03-12T19:40:21.794Z,100015.66
2023-03-12T19:42:51.877Z,100017.72
2023-03-12T19:45:27.884Z,100036.28
2023-03-12T19:47:58.439Z,100046.09
2023-03-12T19:50:28.029Z,100051.44
2023-03-12T19:52:59.714Z,100053.38
2023-03-12T19:55:31.598Z,100053.09
2023-03-12T19:58:04.263Z,100067.38
2023-03-12T20:00:49.232Z,100080.03
2023-03-12T20:03:19.135Z,100081.28
2023-03-12T20:05:56.475Z,100071.31
2023-03-12T20:08:41.016Z,100089.34
2023-03-12T20:11:11.442Z,100082.69
2023-03-12T20:13:43.784Z,100099.03
2023-03-12T20:16:17.176Z,100092.22
2023-03-12T20:18:58.049Z,100096.94
2023-03-12T20:21:37.809Z,100096.72
2023-03-12T20:24:14.987Z,100085.72
2023-03-12T20:26:47.411Z,100099.97
2023-03-12T20:29:16.701Z,100103.16
2023-03-12T20:31:54.114Z,100095.50
2023-03-12T20:34:26.239Z,100107.59
2023-03-12T20:37:04.023Z,100112.59
2023-03-12T20:39:49.136Z,100115.00
2023-03-12T20:42:20.777Z,100113.56
2023-03-12T20:44:50.602Z,100126.41
2023-03-12T20:47:31.474Z,100122.31
2023-03-12T20:50:12.797Z,100119.94
2023-03-12T20:52:51.383Z,100132.56
2023-03-12T20:55:21.000Z,100138.34
2023-03-12T20:58:02.418Z,100154.91
2023-03-12T21:00:34.819Z,100149.44
2023-03-12T21:03:08.082Z,100152.50
2023-03-12T21:05:40.403Z,100159.66
2023-03-12T21:08:12.622Z,100152.94
2023-03-12T21:10:48.901Z,100169.38
2023-03-12T21:13:19.596Z,100170.28
2023-03-12T21:15:53.256Z,100173.94
2023-03-12T21:18:25.253Z,100180.31
2023-03-12T21:21:03.640Z,100176.38
2023-03-12T21:23:37.303Z,100171.66
2023-03-12T21:26:09.599Z,100170.84
2023-03-12T21:28:43.924Z,100170.09
2023-03-12T21:31:16.307Z,100177.91
2023-03-12T21:33:47.072Z,100177.59
2023-03-12T21:36:17.960Z,100184.06
2023-03-12T21:38:47.686Z,100186.13
2023-03-12T21:41:17.651Z,100187.16
2023-03-12T21:43:47.039Z,100196.28
2023-03-12T21:46:17.463Z,100199.59
2023-03-12T21:48:50.501Z,100199.91
2023-03-12T21:51:19.748Z,100206.25
2023-03-12T21:53:53.757Z,100217.47
2023-03-12T21:56:23.052Z,100232.66
2023-03-12T21:58:52.013Z,100232.91
2023-03-12T22:01:21.302Z,100244.78
2023-03-12T22:03:51.789Z,100241.31
2023-03-12T22:06:20.971Z,100245.19
2023-03-12T22:08:52.428Z,100249.41
2023-03-12T22:11:21.739Z,100251.88
2023-03-12T22:13:51.250Z,100246.53
2023-03-12T22:16:20.096Z,100257.81
2023-03-12T22:18:49.050Z,100269.78
2023-03-12T22:21:19.889Z,100277.63
2023-03-12T22:23:56.906Z,100278.13
2023-03-12T22:26:28.205Z,100288.41
2023-03-12T22:28:58.213Z,100295.25
2023-03-12T22:31:28.279Z,100293.50
2023-03-12T22:33:57.338Z,100297.63
2023-03-12T22:36:27.645Z,100315.63
2023-03-12T22:38:56.833Z,100314.53
2023-03-12T22:41:26.515Z,100319.13
2023-03-12T22:43:56.231Z,100337.63
2023-03-12T22:46:27.619Z,100340.03
2023-03-12T22:48:57.490Z,100351.75
2023-03-12T22:51:27.918Z,100354.50
2023-03-12T22:53:56.923Z,100354.09
2023-03-12T22:56:25.861Z,100356.00
2023-03-12T22:58:56.203Z,100360.69
2023-03-12T23:01:25.143Z,100356.50
2023-03-12T23:03:54.291Z,100375.91
2023-03-12T23:06:24.207Z,100379.63
2023-03-12T23:08:55.062Z,100384.72
2023-03-12T23:11:25.537Z,100391.41
2023-03-12T23:13:55.132Z,100389.28
2023-03-12T23:16:25.327Z,100385.53
2023-03-12T23:18:55.316Z,100392.13
2023-03-12T23:21:25.185Z,100394.41
2023-03-12T23:23:55.300Z,100400.97
2023-03-12T23:26:26.707Z,100405.81
2023-03-12T23:28:55.542Z,100412.81
2023-03-12T23:31:24.708Z,100420.13
2023-03-12T23:33:53.513Z,100424.78
2023-03-12T23:36:23.759Z,100412.16
2023-03-12T23:38:52.627Z,100422.44
2023-03-12T23:41:23.543Z,100438.00
2023-03-12T23:43:52.674Z,100425.91
2023-03-12T23:46:21.475Z,100432.47
2023-03-12T23:48:50.569Z,100429.47
2023-03-12T23:51:20.451Z,100439.03
2023-03-12T23:53:49.985Z,100441.34
2023-03-12T23:56:19.581Z,100445.31
2023-03-12T23:58:49.747Z,100450.44
